sensor_id;sensor_type;location;lat;lon;timestamp;pressure;altitude;pressure_sealevel;temperature;humidity
32642;BME280;19323;56.072;9.698;2023-04-03T00:01:36;102756.13;;;26.34;31.72
32642;BME280;19323;56.072;9.698;2023-04-03T00:04:03;102749.16;;;26.31;32.05
32642;BME280;19323;56.072;9.698;2023-04-03T00:06:28;102749.16;;;26.31;31.94
32642;BME280;19323;56.072;9.698;2023-04-03T00:08:53;102746.47;;;26.31;32.05
32642;BME280;19323;56.072;9.698;2023-04-03T00:11:18;102751.00;;;26.30;32.04
32642;BME280;19323;56.072;9.698;2023-04-03T00:13:44;102755.47;;;26.30;32.00
32642;BME280;19323;56.072;9.698;2023-04-03T00:16:10;102748.41;;;26.29;32.00
32642;BME280;19323;56.072;9.698;2023-04-03T00:18:36;102756.47;;;26.29;32.00
32642;BME280;19323;56.072;9.698;2023-04-03T00:21:01;102756.47;;;26.29;31.96
32642;BME280;19323;56.072;9.698;2023-04-03T00:23:26;102750.25;;;26.28;31.93
32642;BME280;19323;56.072;9.698;2023-04-03T00:25:52;102755.63;;;26.28;31.67
32642;BME280;19323;56.072;9.698;2023-04-03T00:28:17;102755.63;;;26.28;31.97
32642;BME280;19323;56.072;9.698;2023-04-03T00:30:42;102744.97;;;26.27;31.63
32642;BME280;19323;56.072;9.698;2023-04-03T00:33:08;102754.00;;;26.26;31.91
32642;BME280;19323;56.072;9.698;2023-04-03T00:35:35;102755.84;;;26.25;31.67
32642;BME280;19323;56.072;9.698;2023-04-03T00:38:00;102759.50;;;26.24;31.75
32642;BME280;19323;56.072;9.698;2023-04-03T00:40:26;102760.34;;;26.25;31.99
32642;BME280;19323;56.072;9.698;2023-04-03T00:42:54;102758.66;;;26.24;31.71
32642;BME280;19323;56.072;9.698;2023-04-03T00:47:52;102775.72;;;26.23;31.99
32642;BME280;19323;56.072;9.698;2023-04-03T00:50:17;102760.59;;;26.22;31.95
32642;BME280;19323;56.072;9.698;2023-04-03T00:52:43;102764.22;;;26.21;31.71
32642;BME280;19323;56.072;9.698;2023-04-03T00:55:11;102768.75;;;26.20;31.98
32642;BME280;19323;56.072;9.698;2023-04-03T00:57:36;102770.59;;;26.20;31.98
32642;BME280;19323;56.072;9.698;2023-04-03T01:00:04;102761.78;;;26.18;31.84
32642;BME280;19323;56.072;9.698;2023-04-03T01:02:32;102766.28;;;26.17;31.63
32642;BME280;19323;56.072;9.698;2023-04-03T01:04:57;102763.72;;;26.16;31.52
32642;BME280;19323;56.072;9.698;2023-04-03T01:07:23;102761.06;;;26.16;31.61
32642;BME280;19323;56.072;9.698;2023-04-03T01:09:49;102769.09;;;26.16;31.57
32642;BME280;19323;56.072;9.698;2023-04-03T01:12:27;102764.81;;;26.13;31.68
32642;BME280;19323;56.072;9.698;2023-04-03T01:14:54;102767.50;;;26.13;31.75
32642;BME280;19323;56.072;9.698;2023-04-03T01:19:52;102774.81;;;26.11;31.78
32642;BME280;19323;56.072;9.698;2023-04-03T01:22:26;102768.56;;;26.10;31.51
32642;BME280;19323;56.072;9.698;2023-04-03T01:24:55;102758.91;;;26.08;31.77
32642;BME280;19323;56.072;9.698;2023-04-03T01:27:20;102766.13;;;26.07;31.72
32642;BME280;19323;56.072;9.698;2023-04-03T01:29:46;102755.38;;;26.07;31.77
32642;BME280;19323;56.072;9.698;2023-04-03T01:32:11;102763.56;;;26.06;31.48
32642;BME280;19323;56.072;9.698;2023-04-03T01:34:36;102763.56;;;26.06;31.79
32642;BME280;19323;56.072;9.698;2023-04-03T01:37:02;102731.81;;;25.87;31.58
32642;BME280;19323;56.072;9.698;2023-04-03T01:39:27;102758.31;;;26.04;31.63
32642;BME280;19323;56.072;9.698;2023-04-03T01:41:52;102757.44;;;26.04;31.83
32642;BME280;19323;56.072;9.698;2023-04-03T01:44:18;102770.00;;;26.03;31.82
32642;BME280;19323;56.072;9.698;2023-04-03T01:46:43;102762.06;;;26.02;31.64
32642;BME280;19323;56.072;9.698;2023-04-03T01:49:08;102760.25;;;26.02;31.72
32642;BME280;19323;56.072;9.698;2023-04-03T01:51:34;102769.25;;;26.01;31.67
32642;BME280;19323;56.072;9.698;2023-04-03T01:53:59;102762.94;;;26.02;31.57
32642;BME280;19323;56.072;9.698;2023-04-03T01:56:24;102773.78;;;26.01;31.50
32642;BME280;19323;56.072;9.698;2023-04-03T01:58:50;102769.25;;;26.01;31.48
32642;BME280;19323;56.072;9.698;2023-04-03T02:01:15;102766.69;;;26.00;31.43
32642;BME280;19323;56.072;9.698;2023-04-03T02:03:40;102765.97;;;25.98;31.81
32642;BME280;19323;56.072;9.698;2023-04-03T02:06:06;102764.25;;;25.97;31.70
32642;BME280;19323;56.072;9.698;2023-04-03T02:08:31;102770.47;;;25.97;31.49
32642;BME280;19323;56.072;9.698;2023-04-03T02:10:56;102771.44;;;25.96;31.42
32642;BME280;19323;56.072;9.698;2023-04-03T02:13:21;102777.66;;;25.97;31.44
32642;BME280;19323;56.072;9.698;2023-04-03T02:15:46;102774.22;;;25.95;31.64
32642;BME280;19323;56.072;9.698;2023-04-03T02:18:12;102777.75;;;25.95;31.74
32642;BME280;19323;56.072;9.698;2023-04-03T02:20:37;102780.59;;;25.94;31.64
32642;BME280;19323;56.072;9.698;2023-04-03T02:23:03;102783.28;;;25.94;31.32
32642;BME280;19323;56.072;9.698;2023-04-03T02:25:29;102786.91;;;25.93;31.57
32642;BME280;19323;56.072;9.698;2023-04-03T02:27:55;102780.69;;;25.92;31.28
32642;BME280;19323;56.072;9.698;2023-04-03T02:30:20;102779.84;;;25.92;31.34
32642;BME280;19323;56.072;9.698;2023-04-03T02:32:45;102780.78;;;25.90;31.29
32642;BME280;19323;56.072;9.698;2023-04-03T02:35:10;102781.78;;;25.89;31.47
32642;BME280;19323;56.072;9.698;2023-04-03T02:37:36;102780.94;;;25.89;31.30
32642;BME280;19323;56.072;9.698;2023-04-03T02:40:01;102786.31;;;25.89;31.35
32642;BME280;19323;56.072;9.698;2023-04-03T02:42:26;102779.94;;;25.90;31.61
32642;BME280;19323;56.072;9.698;2023-04-03T02:44:51;102768.47;;;25.88;31.49
32642;BME280;19323;56.072;9.698;2023-04-03T02:47:17;102777.38;;;25.88;31.55
32642;BME280;19323;56.072;9.698;2023-04-03T02:49:42;102774.78;;;25.87;31.53
32642;BME280;19323;56.072;9.698;2023-04-03T02:52:09;102776.59;;;25.86;31.25
32642;BME280;19323;56.072;9.698;2023-04-03T02:54:35;102778.31;;;25.87;31.46
32642;BME280;19323;56.072;9.698;2023-04-03T02:57:00;102775.72;;;25.86;31.32
32642;BME280;19323;56.072;9.698;2023-04-03T02:59:25;102772.19;;;25.85;31.46
32642;BME280;19323;56.072;9.698;2023-04-03T03:01:50;102776.72;;;25.85;31.34
32642;BME280;19323;56.072;9.698;2023-04-03T03:04:16;102786.72;;;25.83;31.08
32642;BME280;19323;56.072;9.698;2023-04-03T03:06:41;102782.44;;;25.80;31.19
32642;BME280;19323;56.072;9.698;2023-04-03T03:09:06;102787.66;;;25.82;31.26
32642;BME280;19323;56.072;9.698;2023-04-03T03:11:31;102785.97;;;25.81;31.18
32642;BME280;19323;56.072;9.698;2023-04-03T03:13:57;102790.34;;;25.82;31.43
32642;BME280;19323;56.072;9.698;2023-04-03T03:16:22;102785.09;;;25.80;31.29
32642;BME280;19323;56.072;9.698;2023-04-03T03:18:47;102781.53;;;25.80;31.29
32642;BME280;19323;56.072;9.698;2023-04-03T03:21:12;102780.69;;;25.79;31.26
32642;BME280;19323;56.072;9.698;2023-04-03T03:23:37;102793.16;;;25.80;31.37
32642;BME280;19323;56.072;9.698;2023-04-03T03:26:07;102793.03;;;25.82;31.56
32642;BME280;19323;56.072;9.698;2023-04-03T03:28:33;102787.78;;;25.80;31.31
32642;BME280;19323;56.072;9.698;2023-04-03T03:30:59;102788.66;;;25.81;31.30
32642;BME280;19323;56.072;9.698;2023-04-03T03:33:24;102795.09;;;25.78;31.23
32642;BME280;19323;56.072;9.698;2023-04-03T03:35:50;102781.78;;;25.77;31.06
32642;BME280;19323;56.072;9.698;2023-04-03T03:38:16;102790.59;;;25.79;31.20
32642;BME280;19323;56.072;9.698;2023-04-03T03:40:41;102795.94;;;25.79;31.13
32642;BME280;19323;56.072;9.698;2023-04-03T03:43:06;102799.59;;;25.78;31.11
32642;BME280;19323;56.072;9.698;2023-04-03T03:45:31;102792.53;;;25.77;31.07
32642;BME280;19323;56.072;9.698;2023-04-03T03:47:56;102796.16;;;25.76;31.18
32642;BME280;19323;56.072;9.698;2023-04-03T03:50:21;102796.16;;;25.76;31.22
32642;BME280;19323;56.072;9.698;2023-04-03T03:52:46;102798.00;;;25.75;31.21
32642;BME280;19323;56.072;9.698;2023-04-03T03:55:12;102791.78;;;25.75;30.94
32642;BME280;19323;56.072;9.698;2023-04-03T03:57:37;102797.03;;;25.76;31.29
32642;BME280;19323;56.072;9.698;2023-04-03T04:00:03;102795.44;;;25.74;31.05
32642;BME280;19323;56.072;9.698;2023-04-03T04:02:29;102796.38;;;25.73;30.97
32642;BME280;19323;56.072;9.698;2023-04-03T04:04:54;102798.22;;;25.72;30.91
32642;BME280;19323;56.072;9.698;2023-04-03T04:07:19;102795.63;;;25.70;31.17
32642;BME280;19323;56.072;9.698;2023-04-03T04:09:44;102792.00;;;25.72;30.92
32642;BME280;19323;56.072;9.698;2023-04-03T04:12:10;102791.25;;;25.69;30.96
32642;BME280;19323;56.072;9.698;2023-04-03T04:14:35;102793.06;;;25.69;30.96
32642;BME280;19323;56.072;9.698;2023-04-03T04:17:00;102791.34;;;25.68;30.92
32642;BME280;19323;56.072;9.698;2023-04-03T04:19:27;102790.50;;;25.67;31.01
32642;BME280;19323;56.072;9.698;2023-04-03T04:21:52;102798.56;;;25.67;30.94
32642;BME280;19323;56.072;9.698;2023-04-03T04:24:17;102796.81;;;25.66;31.08
32642;BME280;19323;56.072;9.698;2023-04-03T04:26:42;102800.38;;;25.67;31.14
32642;BME280;19323;56.072;9.698;2023-04-03T04:29:08;102797.69;;;25.67;30.87
32642;BME280;19323;56.072;9.698;2023-04-03T04:31:33;102803.94;;;25.67;31.00
32642;BME280;19323;56.072;9.698;2023-04-03T04:33:59;102800.50;;;25.65;31.20
32642;BME280;19323;56.072;9.698;2023-04-03T04:36:24;102809.50;;;25.64;31.15
32642;BME280;19323;56.072;9.698;2023-04-03T04:38:49;102806.81;;;25.64;31.23
32642;BME280;19323;56.072;9.698;2023-04-03T04:41:17;102816.78;;;25.62;30.99
32642;BME280;19323;56.072;9.698;2023-04-03T04:43:43;102808.00;;;25.60;31.03
32642;BME280;19323;56.072;9.698;2023-04-03T04:46:09;102813.38;;;25.60;31.25
32642;BME280;19323;56.072;9.698;2023-04-03T04:48:36;102819.72;;;25.59;31.00
32642;BME280;19323;56.072;9.698;2023-04-03T04:51:01;102830.44;;;25.59;30.99
32642;BME280;19323;56.072;9.698;2023-04-03T04:53:27;102834.84;;;25.60;31.20
32642;BME280;19323;56.072;9.698;2023-04-03T04:55:52;102832.16;;;25.60;31.22
32642;BME280;19323;56.072;9.698;2023-04-03T04:58:18;102834.13;;;25.58;31.06
32642;BME280;19323;56.072;9.698;2023-04-03T05:00:43;102835.06;;;25.57;31.18
32642;BME280;19323;56.072;9.698;2023-04-03T05:03:08;102840.44;;;25.57;31.23
32642;BME280;19323;56.072;9.698;2023-04-03T05:05:33;102841.41;;;25.56;31.33
32642;BME280;19323;56.072;9.698;2023-04-03T05:07:59;102846.78;;;25.56;30.99
32642;BME280;19323;56.072;9.698;2023-04-03T05:10:24;102844.09;;;25.56;31.21
32642;BME280;19323;56.072;9.698;2023-04-03T05:12:49;102847.72;;;25.55;31.27
32642;BME280;19323;56.072;9.698;2023-04-03T05:15:14;102846.03;;;25.54;31.32
32642;BME280;19323;56.072;9.698;2023-04-03T05:17:39;102846.97;;;25.53;31.16
32642;BME280;19323;56.072;9.698;2023-04-03T05:20:05;102846.13;;;25.53;31.27
32642;BME280;19323;56.072;9.698;2023-04-03T05:22:30;102841.72;;;25.52;31.25
32642;BME280;19323;56.072;9.698;2023-04-03T05:24:55;102841.72;;;25.52;31.41
32642;BME280;19323;56.072;9.698;2023-04-03T05:27:20;102853.31;;;25.52;31.49
32642;BME280;19323;56.072;9.698;2023-04-03T05:29:46;102848.91;;;25.51;31.27
32642;BME280;19323;56.072;9.698;2023-04-03T05:32:11;102848.91;;;25.51;31.28
32642;BME280;19323;56.072;9.698;2023-04-03T05:34:36;102848.91;;;25.51;31.18
32642;BME280;19323;56.072;9.698;2023-04-03T05:37:01;102850.75;;;25.51;31.45
32642;BME280;19323;56.072;9.698;2023-04-03T05:39:28;102854.28;;;25.51;31.26
32642;BME280;19323;56.072;9.698;2023-04-03T05:41:53;102849.88;;;25.50;31.32
32642;BME280;19323;56.072;9.698;2023-04-03T05:44:18;102855.25;;;25.50;31.21
32642;BME280;19323;56.072;9.698;2023-04-03T05:46:43;102856.97;;;25.51;31.12
32642;BME280;19323;56.072;9.698;2023-04-03T05:49:09;102856.22;;;25.49;31.12
32642;BME280;19323;56.072;9.698;2023-04-03T05:51:35;102862.56;;;25.48;31.51
32642;BME280;19323;56.072;9.698;2023-04-03T05:54:16;102864.25;;;25.49;31.21
32642;BME280;19323;56.072;9.698;2023-04-03T05:56:43;102862.56;;;25.48;31.18
32642;BME280;19323;56.072;9.698;2023-04-03T05:59:08;102870.59;;;25.48;31.26
32642;BME280;19323;56.072;9.698;2023-04-03T06:01:33;102882.19;;;25.48;31.12
32642;BME280;19323;56.072;9.698;2023-04-03T06:03:59;102871.56;;;25.47;31.41
32642;BME280;19323;56.072;9.698;2023-04-03T06:06:24;102883.16;;;25.47;31.21
32642;BME280;19323;56.072;9.698;2023-04-03T06:08:49;102884.13;;;25.46;31.12
32642;BME280;19323;56.072;9.698;2023-04-03T06:11:15;102885.94;;;25.46;31.12
32642;BME280;19323;56.072;9.698;2023-04-03T06:13:40;102887.66;;;25.47;31.14
32642;BME280;19323;56.072;9.698;2023-04-03T06:16:08;102878.75;;;25.46;31.11
32642;BME280;19323;56.072;9.698;2023-04-03T06:18:34;102882.28;;;25.47;31.25
32642;BME280;19323;56.072;9.698;2023-04-03T06:20:59;102886.69;;;25.48;31.26
32642;BME280;19323;56.072;9.698;2023-04-03T06:23:25;102888.53;;;25.47;31.17
32642;BME280;19323;56.072;9.698;2023-04-03T06:25:51;102883.16;;;25.47;31.29
32642;BME280;19323;56.072;9.698;2023-04-03T06:28:16;102885.84;;;25.47;30.98
32642;BME280;19323;56.072;9.698;2023-04-03T06:30:41;102889.38;;;25.48;31.02
32642;BME280;19323;56.072;9.698;2023-04-03T06:33:06;102884.88;;;25.48;31.30
32642;BME280;19323;56.072;9.698;2023-04-03T06:35:32;102890.22;;;25.48;31.18
32642;BME280;19323;56.072;9.698;2023-04-03T06:37:59;102893.78;;;25.49;31.27
32642;BME280;19323;56.072;9.698;2023-04-03T06:40:25;102894.75;;;25.48;31.04
32642;BME280;19323;56.072;9.698;2023-04-03T06:42:51;102893.91;;;25.47;31.13
32642;BME280;19323;56.072;9.698;2023-04-03T06:45:16;102894.75;;;25.48;31.10
32642;BME280;19323;56.072;9.698;2023-04-03T06:47:41;102902.56;;;25.51;31.16
32642;BME280;19323;56.072;9.698;2023-04-03T06:50:07;102904.31;;;25.52;31.24
32642;BME280;19323;56.072;9.698;2023-04-03T06:52:33;102899.69;;;25.54;31.38
32642;BME280;19323;56.072;9.698;2023-04-03T06:54:59;102908.59;;;25.55;31.52
32642;BME280;19323;56.072;9.698;2023-04-03T06:57:25;102907.75;;;25.54;31.38
32642;BME280;19323;56.072;9.698;2023-04-03T06:59:50;102909.53;;;25.54;31.26
32642;BME280;19323;56.072;9.698;2023-04-03T07:02:15;102908.69;;;25.53;31.43
32642;BME280;19323;56.072;9.698;2023-04-03T07:04:40;102907.84;;;25.53;31.44
32642;BME280;19323;56.072;9.698;2023-04-03T07:07:06;102904.06;;;25.55;31.46
32642;BME280;19323;56.072;9.698;2023-04-03T07:09:31;102908.69;;;25.53;31.39
32642;BME280;19323;56.072;9.698;2023-04-03T07:11:56;102906.84;;;25.54;31.57
32642;BME280;19323;56.072;9.698;2023-04-03T07:14:21;102910.44;;;25.54;31.68
32642;BME280;19323;56.072;9.698;2023-04-03T07:16:47;102912.13;;;25.55;31.51
32642;BME280;19323;56.072;9.698;2023-04-03T07:19:12;102911.28;;;25.55;31.74
32642;BME280;19323;56.072;9.698;2023-04-03T07:21:37;102912.13;;;25.55;31.65
32642;BME280;19323;56.072;9.698;2023-04-03T07:24:03;102921.03;;;25.56;31.74
32642;BME280;19323;56.072;9.698;2023-04-03T07:26:28;102922.00;;;25.55;31.89
32642;BME280;19323;56.072;9.698;2023-04-03T07:28:53;102915.88;;;25.53;31.87
32642;BME280;19323;56.072;9.698;2023-04-03T07:31:18;102919.44;;;25.53;31.74
32642;BME280;19323;56.072;9.698;2023-04-03T07:33:44;102921.25;;;25.53;31.60
32642;BME280;19323;56.072;9.698;2023-04-03T07:36:10;102924.78;;;25.53;31.91
32642;BME280;19323;56.072;9.698;2023-04-03T07:38:36;102920.19;;;25.55;32.11
32642;BME280;19323;56.072;9.698;2023-04-03T07:41:02;102929.84;;;25.58;32.08
32642;BME280;19323;56.072;9.698;2023-04-03T07:43:27;102938.78;;;25.58;32.14
32642;BME280;19323;56.072;9.698;2023-04-03T07:45:52;102921.91;;;25.56;32.22
32642;BME280;19323;56.072;9.698;2023-04-03T07:48:19;102935.34;;;25.56;32.49
32642;BME280;19323;56.072;9.698;2023-04-03T07:50:45;102933.59;;;25.55;32.15
32642;BME280;19323;56.072;9.698;2023-04-03T07:53:11;102928.22;;;25.55;32.37
32642;BME280;19323;56.072;9.698;2023-04-03T07:55:36;102931.91;;;25.54;32.34
32642;BME280;19323;56.072;9.698;2023-04-03T07:58:08;102928.22;;;25.55;32.33
32642;BME280;19323;56.072;9.698;2023-04-03T08:00:33;102917.50;;;25.55;32.47
32642;BME280;19323;56.072;9.698;2023-04-03T08:02:58;102922.88;;;25.55;32.75
32642;BME280;19323;56.072;9.698;2023-04-03T08:05:24;102920.94;;;25.57;32.63
32642;BME280;19323;56.072;9.698;2023-04-03T08:07:49;102922.66;;;25.58;32.45
32642;BME280;19323;56.072;9.698;2023-04-03T08:10:14;102922.53;;;25.60;32.71
32642;BME280;19323;56.072;9.698;2023-04-03T08:12:40;102925.03;;;25.63;32.56
32642;BME280;19323;56.072;9.698;2023-04-03T08:15:05;102918.78;;;25.62;32.51
32642;BME280;19323;56.072;9.698;2023-04-03T08:17:32;102915.16;;;25.63;32.67
32642;BME280;19323;56.072;9.698;2023-04-03T08:19:57;102913.22;;;25.65;32.68
32642;BME280;19323;56.072;9.698;2023-04-03T08:22:22;102912.22;;;25.66;32.58
32642;BME280;19323;56.072;9.698;2023-04-03T08:24:47;102914.81;;;25.68;32.55
32642;BME280;19323;56.072;9.698;2023-04-03T08:27:12;102918.34;;;25.68;32.62
32642;BME280;19323;56.072;9.698;2023-04-03T08:29:38;102912.03;;;25.69;32.48
32642;BME280;19323;56.072;9.698;2023-04-03T08:32:03;102901.28;;;25.69;32.62
32642;BME280;19323;56.072;9.698;2023-04-03T08:34:29;102907.63;;;25.68;32.51
32642;BME280;19323;56.072;9.698;2023-04-03T08:36:54;102905.91;;;25.67;32.53
32642;BME280;19323;56.072;9.698;2023-04-03T08:39:19;102906.75;;;25.68;32.55
32642;BME280;19323;56.072;9.698;2023-04-03T08:41:45;102905.91;;;25.67;32.71
32642;BME280;19323;56.072;9.698;2023-04-03T08:44:46;102913.97;;;25.67;32.89
32642;BME280;19323;56.072;9.698;2023-04-03T08:49:56;102897.88;;;25.67;32.68
32642;BME280;19323;56.072;9.698;2023-04-03T08:54:54;102899.56;;;25.68;32.77
32642;BME280;19323;56.072;9.698;2023-04-03T08:57:26;102888.81;;;25.68;32.72
32642;BME280;19323;56.072;9.698;2023-04-03T08:59:53;102898.63;;;25.69;33.02
32642;BME280;19323;56.072;9.698;2023-04-03T09:02:29;102896.69;;;25.72;32.94
32642;BME280;19323;56.072;9.698;2023-04-03T09:04:57;102901.06;;;25.73;32.88
32642;BME280;19323;56.072;9.698;2023-04-03T09:07:25;102902.81;;;25.74;33.18
32642;BME280;19323;56.072;9.698;2023-04-03T09:09:56;102899.22;;;25.73;33.25
32642;BME280;19323;56.072;9.698;2023-04-03T09:12:32;102907.28;;;25.73;33.23
32642;BME280;19323;56.072;9.698;2023-04-03T09:20:03;102907.28;;;25.73;33.39
32642;BME280;19323;56.072;9.698;2023-04-03T09:22:31;102903.66;;;25.74;33.15
32642;BME280;19323;56.072;9.698;2023-04-03T09:25:14;102913.41;;;25.75;33.24
32642;BME280;19323;56.072;9.698;2023-04-03T09:27:41;102899.03;;;25.76;33.33
32642;BME280;19323;56.072;9.698;2023-04-03T09:30:11;102901.59;;;25.78;33.32
32642;BME280;19323;56.072;9.698;2023-04-03T09:32:37;102905.03;;;25.80;33.22
32642;BME280;19323;56.072;9.698;2023-04-03T09:35:15;102900.53;;;25.80;33.35
32642;BME280;19323;56.072;9.698;2023-04-03T09:37:42;102901.38;;;25.81;33.48
32642;BME280;19323;56.072;9.698;2023-04-03T09:42:53;102901.16;;;25.84;33.29
32642;BME280;19323;56.072;9.698;2023-04-03T09:45:37;102896.63;;;25.84;33.10
32642;BME280;19323;56.072;9.698;2023-04-03T09:48:14;102886.66;;;25.86;32.93
32642;BME280;19323;56.072;9.698;2023-04-03T09:53:26;102887.22;;;25.92;33.27
32642;BME280;19323;56.072;9.698;2023-04-03T09:55:51;102890.53;;;25.95;33.19
32642;BME280;19323;56.072;9.698;2023-04-03T09:58:24;102884.22;;;25.96;33.08
32642;BME280;19323;56.072;9.698;2023-04-03T10:00:54;102843.00;;;25.72;33.11
32642;BME280;19323;56.072;9.698;2023-04-03T10:03:27;102883.88;;;26.01;33.25
32642;BME280;19323;56.072;9.698;2023-04-03T10:05:53;102877.53;;;26.02;32.92
32642;BME280;19323;56.072;9.698;2023-04-03T10:08:22;102881.84;;;26.04;32.91
32642;BME280;19323;56.072;9.698;2023-04-03T10:10:49;102878.16;;;26.05;33.08
32642;BME280;19323;56.072;9.698;2023-04-03T10:13:29;102874.41;;;26.08;32.97
32642;BME280;19323;56.072;9.698;2023-04-03T10:16:02;102884.06;;;26.10;32.75
32642;BME280;19323;56.072;9.698;2023-04-03T10:18:31;102882.00;;;26.14;32.94
32642;BME280;19323;56.072;9.698;2023-04-03T10:21:08;102880.06;;;26.16;32.78
32642;BME280;19323;56.072;9.698;2023-04-03T10:23:45;102881.56;;;26.20;32.50
32642;BME280;19323;56.072;9.698;2023-04-03T10:26:16;102875.97;;;26.23;32.63
32642;BME280;19323;56.072;9.698;2023-04-03T10:31:13;102886.25;;;26.29;32.75
32642;BME280;19323;56.072;9.698;2023-04-03T10:33:47;102884.22;;;26.33;32.58
32642;BME280;19323;56.072;9.698;2023-04-03T10:44:07;102876.22;;;26.44;31.93
32642;BME280;19323;56.072;9.698;2023-04-03T10:46:53;102873.44;;;26.46;31.94
32642;BME280;19323;56.072;9.698;2023-04-03T10:49:31;102887.47;;;26.49;32.11
32642;BME280;19323;56.072;9.698;2023-04-03T10:52:06;102886.50;;;26.50;31.91
32642;BME280;19323;56.072;9.698;2023-04-03T10:57:01;102880.91;;;26.54;31.79
32642;BME280;19323;56.072;9.698;2023-04-03T10:59:41;102883.47;;;26.55;31.38
32642;BME280;19323;56.072;9.698;2023-04-03T11:04:44;102874.34;;;26.58;31.45
32642;BME280;19323;56.072;9.698;2023-04-03T11:07:17;102873.38;;;26.59;31.64
32642;BME280;19323;56.072;9.698;2023-04-03T11:09:45;102863.50;;;26.59;31.53
32642;BME280;19323;56.072;9.698;2023-04-03T11:14:40;102875.84;;;26.62;30.66
32642;BME280;19323;56.072;9.698;2023-04-03T11:19:39;102875.84;;;26.62;30.66
32642;BME280;19323;56.072;9.698;2023-04-03T11:22:12;102869.63;;;26.61;30.45
32642;BME280;19323;56.072;9.698;2023-04-03T11:24:40;102863.25;;;26.62;30.21
32642;BME280;19323;56.072;9.698;2023-04-03T11:27:08;102859.72;;;26.62;30.18
32642;BME280;19323;56.072;9.698;2023-04-03T11:29:40;102869.63;;;26.61;29.83
32642;BME280;19323;56.072;9.698;2023-04-03T11:32:13;102860.69;;;26.61;29.67
32642;BME280;19323;56.072;9.698;2023-04-03T11:34:47;102860.69;;;26.61;29.69
32642;BME280;19323;56.072;9.698;2023-04-03T11:37:26;102854.44;;;26.60;29.73
32642;BME280;19323;56.072;9.698;2023-04-03T11:39:56;102854.34;;;26.62;29.62
32642;BME280;19323;56.072;9.698;2023-04-03T11:42:25;102859.72;;;26.62;29.74
32642;BME280;19323;56.072;9.698;2023-04-03T11:44:51;102854.34;;;26.62;29.49
32642;BME280;19323;56.072;9.698;2023-04-03T11:47:43;102862.31;;;26.63;29.26
32642;BME280;19323;56.072;9.698;2023-04-03T11:50:13;102847.97;;;26.63;29.70
32642;BME280;19323;56.072;9.698;2023-04-03T11:52:55;102847.88;;;26.64;29.67
32642;BME280;19323;56.072;9.698;2023-04-03T12:03:29;102847.63;;;26.67;29.24
32642;BME280;19323;56.072;9.698;2023-04-03T12:05:55;102835.91;;;26.68;29.23
32642;BME280;19323;56.072;9.698;2023-04-03T12:08:28;102835.81;;;26.70;29.29
32642;BME280;19323;56.072;9.698;2023-04-03T12:13:35;102827.75;;;26.70;29.46
32642;BME280;19323;56.072;9.698;2023-04-03T12:16:00;102831.19;;;26.72;28.99
32642;BME280;19323;56.072;9.698;2023-04-03T12:20:57;102824.81;;;26.73;29.00
32642;BME280;19323;56.072;9.698;2023-04-03T12:25:49;102817.50;;;26.75;29.20
32642;BME280;19323;56.072;9.698;2023-04-03T12:28:14;102820.06;;;26.77;29.34
32642;BME280;19323;56.072;9.698;2023-04-03T12:30:40;102816.41;;;26.78;29.33
32642;BME280;19323;56.072;9.698;2023-04-03T12:33:13;102810.06;;;26.79;29.05
32642;BME280;19323;56.072;9.698;2023-04-03T12:35:44;102813.50;;;26.81;28.78
32642;BME280;19323;56.072;9.698;2023-04-03T12:38:26;102814.19;;;26.83;29.36
32642;BME280;19323;56.072;9.698;2023-04-03T12:46:14;102798.69;;;26.86;29.11
32642;BME280;19323;56.072;9.698;2023-04-03T12:51:09;102794.78;;;26.90;29.04
32642;BME280;19323;56.072;9.698;2023-04-03T12:53:38;102787.47;;;26.92;28.94
32642;BME280;19323;56.072;9.698;2023-04-03T12:56:20;102787.34;;;26.94;28.92
32642;BME280;19323;56.072;9.698;2023-04-03T12:58:46;102789.91;;;26.96;28.88
32642;BME280;19323;56.072;9.698;2023-04-03T13:01:16;102781.63;;;26.99;29.03
32642;BME280;19323;56.072;9.698;2023-04-03T13:03:44;102781.47;;;27.00;29.31
32642;BME280;19323;56.072;9.698;2023-04-03T13:06:23;102770.59;;;27.02;28.86
32642;BME280;19323;56.072;9.698;2023-04-03T13:08:52;102774.16;;;27.02;28.96
32642;BME280;19323;56.072;9.698;2023-04-03T13:11:17;102765.13;;;27.03;29.03
32642;BME280;19323;56.072;9.698;2023-04-03T13:13:55;102768.66;;;27.04;28.96
32642;BME280;19323;56.072;9.698;2023-04-03T13:16:20;102763.16;;;27.05;28.93
32642;BME280;19323;56.072;9.698;2023-04-03T13:18:50;102757.66;;;27.07;29.04
32642;BME280;19323;56.072;9.698;2023-04-03T13:21:16;102761.06;;;27.09;29.06
32642;BME280;19323;56.072;9.698;2023-04-03T13:23:44;102758.28;;;27.10;29.20
32642;BME280;19323;56.072;9.698;2023-04-03T13:26:11;102760.00;;;27.11;29.20
32642;BME280;19323;56.072;9.698;2023-04-03T13:28:38;102766.13;;;27.13;29.08
32642;BME280;19323;56.072;9.698;2023-04-03T13:33:39;102765.75;;;27.18;29.10
32642;BME280;19323;56.072;9.698;2023-04-03T13:36:18;102756.69;;;27.19;29.54
32642;BME280;19323;56.072;9.698;2023-04-03T13:38:44;102753.03;;;27.20;29.14
32642;BME280;19323;56.072;9.698;2023-04-03T13:43:53;102747.44;;;27.23;29.59
32642;BME280;19323;56.072;9.698;2023-04-03T13:48:44;102746.22;;;27.27;29.48
32642;BME280;19323;56.072;9.698;2023-04-03T13:53:41;102741.56;;;27.29;29.62
32642;BME280;19323;56.072;9.698;2023-04-03T13:56:09;102737.88;;;27.30;29.70
32642;BME280;19323;56.072;9.698;2023-04-03T13:58:34;102736.19;;;27.29;29.57
32642;BME280;19323;56.072;9.698;2023-04-03T14:03:29;102734.22;;;27.31;29.74
32642;BME280;19323;56.072;9.698;2023-04-03T14:05:55;102732.25;;;27.33;29.38
32642;BME280;19323;56.072;9.698;2023-04-03T14:08:20;102730.53;;;27.32;29.76